createdAt,value
2019-04-01T10:24:47.187Z,21.73
2019-04-01T10:27:15.839Z,20.23
2019-04-01T10:29:44.471Z,21.23
2019-04-01T10:32:13.131Z,19.60
2019-04-01T10:34:41.809Z,21.10
2019-04-01T10:37:10.441Z,21.13
2019-04-01T10:39:38.993Z,20.20
2019-04-01T10:42:07.681Z,19.97
2019-04-01T10:44:36.400Z,20.17
2019-04-01T10:47:05.058Z,21.27
2019-04-01T10:49:33.665Z,20.73
2019-04-01T10:52:02.261Z,19.90
2019-04-01T10:54:30.829Z,22.83
2019-04-01T10:56:59.404Z,20.10
2019-04-01T10:59:28.073Z,21.50
2019-04-01T11:01:56.824Z,20.20
2019-04-01T11:04:25.483Z,20.97
2019-04-01T11:06:54.139Z,20.87
2019-04-01T11:09:37.404Z,21.70
2019-04-01T11:11:53.162Z,21.10
2019-04-01T11:14:22.832Z,21.37
2019-04-01T11:16:51.621Z,20.43
2019-04-01T11:19:20.192Z,21.43
2019-04-01T11:21:48.752Z,20.50
2019-04-01T11:24:17.427Z,22.27
2019-04-01T11:26:46.072Z,21.87
2019-04-01T11:29:14.662Z,20.63
2019-04-01T11:31:43.291Z,20.90
2019-04-01T11:34:12.038Z,21.27
2019-04-01T11:36:40.923Z,21.00
2019-04-01T11:39:12.317Z,21.80
2019-04-01T11:41:42.084Z,19.67
2019-04-01T11:44:10.903Z,19.60
2019-04-01T11:46:39.520Z,19.67
2019-04-01T11:49:12.123Z,19.20
2019-04-01T11:51:40.961Z,20.43
2019-04-01T11:54:10.189Z,18.13
2019-04-01T11:56:39.156Z,20.03
2019-04-01T11:59:08.470Z,20.03
2019-04-01T12:01:37.390Z,20.67
2019-04-01T12:04:06.554Z,18.77
2019-04-01T12:06:35.206Z,18.13
2019-04-01T12:09:06.037Z,19.40
2019-04-01T12:11:34.827Z,18.70
2019-04-01T12:14:05.264Z,18.53
2019-04-01T12:16:34.120Z,20.30
2019-04-01T12:19:02.918Z,19.87
2019-04-01T12:21:31.751Z,20.90
2019-04-01T12:24:00.901Z,18.17
2019-04-01T12:26:31.402Z,18.40
2019-04-01T12:29:00.113Z,19.43
2019-04-01T12:31:28.692Z,19.17
2019-04-01T12:33:57.370Z,19.07
2019-04-01T12:36:27.477Z,18.60
2019-04-01T12:38:56.305Z,19.53
2019-04-01T12:41:25.041Z,19.57
2019-04-01T12:43:53.716Z,18.77
2019-04-01T12:46:22.474Z,17.50
2019-04-01T12:48:51.122Z,18.47
2019-04-01T12:51:19.857Z,16.27
2019-04-01T12:53:48.585Z,17.23
2019-04-01T12:56:17.252Z,18.67
2019-04-01T12:58:45.913Z,18.90
2019-04-01T13:01:14.657Z,18.43
2019-04-01T13:03:43.421Z,17.80
2019-04-01T13:06:12.010Z,18.30
2019-04-01T13:08:40.609Z,19.13
2019-04-01T13:11:09.333Z,21.50
2019-04-01T13:13:38.022Z,18.50
2019-04-01T13:16:09.009Z,18.50
2019-04-01T13:18:38.310Z,17.80
2019-04-01T13:21:08.833Z,17.90
2019-04-01T13:23:40.536Z,18.50
2019-04-01T13:26:09.275Z,17.47
2019-04-01T13:28:37.919Z,16.93
2019-04-01T13:31:06.525Z,17.30
2019-04-01T13:33:35.090Z,17.47
2019-04-01T13:36:03.758Z,16.00
2019-04-01T13:38:32.432Z,17.00
2019-04-01T13:41:01.126Z,17.10
2019-04-01T13:43:29.760Z,17.70
2019-04-01T13:45:58.378Z,17.53
2019-04-01T13:48:26.990Z,16.57
2019-04-01T13:50:55.642Z,16.00
2019-04-01T13:53:24.352Z,15.13
2019-04-01T13:55:53.071Z,16.33
2019-04-01T13:58:21.751Z,16.97
2019-04-01T14:00:50.422Z,16.70
2019-04-01T14:03:19.143Z,16.40
2019-04-01T14:05:47.874Z,17.03
2019-04-01T14:08:16.445Z,15.67
2019-04-01T14:10:45.206Z,15.60
2019-04-01T14:13:13.824Z,14.63
2019-04-01T14:15:42.405Z,15.07
2019-04-01T14:18:12.533Z,14.87
2019-04-01T14:20:41.208Z,15.77
2019-04-01T14:23:09.798Z,16.80
2019-04-01T14:25:38.374Z,16.57
2019-04-01T14:28:06.976Z,14.57
2019-04-01T14:30:36.375Z,14.60
2019-04-01T14:33:05.430Z,16.00
2019-04-01T14:35:35.611Z,14.80
2019-04-01T14:38:04.328Z,14.77
2019-04-01T14:40:32.941Z,14.40
2019-04-01T14:43:01.571Z,14.80
2019-04-01T14:45:30.181Z,14.87
2019-04-01T14:47:58.741Z,14.70
2019-04-01T14:50:27.413Z,14.00
2019-04-01T14:52:55.965Z,15.67
2019-04-01T14:55:24.606Z,16.70
2019-04-01T14:57:53.232Z,14.93
2019-04-01T15:00:22.852Z,15.93
2019-04-01T15:02:51.487Z,16.13
2019-04-01T15:05:20.960Z,14.13
2019-04-01T15:07:49.725Z,14.13
2019-04-01T15:10:19.348Z,15.33
2019-04-01T15:12:47.941Z,14.60
2019-04-01T15:15:16.593Z,16.10
2019-04-01T15:17:45.259Z,19.30
2019-04-01T15:20:14.568Z,19.57
2019-04-01T15:22:43.263Z,19.73
2019-04-01T15:25:11.999Z,19.00
2019-04-01T15:27:40.703Z,18.83
2019-04-01T15:30:09.864Z,18.30
2019-04-01T15:32:38.903Z,17.57
2019-04-01T15:35:08.164Z,18.93
2019-04-01T15:37:36.785Z,18.83
2019-04-01T15:40:07.419Z,19.10
2019-04-01T15:42:36.201Z,19.70
2019-04-01T15:45:06.414Z,18.97
2019-04-01T15:47:35.526Z,18.97
2019-04-01T15:50:07.542Z,18.17
2019-04-01T15:52:36.210Z,19.13
2019-04-01T15:55:07.151Z,19.37
2019-04-01T15:57:35.738Z,19.10
2019-04-01T16:00:06.032Z,18.93
2019-04-01T16:02:34.612Z,18.97
2019-04-01T16:05:03.539Z,19.43
2019-04-01T16:07:32.220Z,18.53
2019-04-01T16:10:00.819Z,18.87
2019-04-01T16:12:29.530Z,17.47
2019-04-01T16:14:58.184Z,18.00
2019-04-01T16:17:26.974Z,18.33
2019-04-01T16:19:55.624Z,17.57
2019-04-01T16:22:24.436Z,18.80
2019-04-01T16:24:53.134Z,17.97
2019-04-01T16:27:21.754Z,18.53
2019-04-01T16:29:56.628Z,19.17
2019-04-01T16:32:21.218Z,19.37
2019-04-01T16:34:50.019Z,18.90
2019-04-01T16:37:18.907Z,18.73
2019-04-01T16:39:48.809Z,18.53
2019-04-01T16:42:18.583Z,19.00
2019-04-01T16:44:48.182Z,18.87
2019-04-01T16:47:16.982Z,18.53
2019-04-01T16:49:45.670Z,18.77
2019-04-01T16:52:15.563Z,18.97
2019-04-01T16:54:47.402Z,19.30
2019-04-01T16:57:16.033Z,18.60
2019-04-01T16:59:44.731Z,19.60
2019-04-01T17:02:18.286Z,19.13
2019-04-01T17:04:46.101Z,18.50
2019-04-01T17:07:13.968Z,20.23
2019-04-01T17:09:42.634Z,17.10
2019-04-01T17:12:11.319Z,19.90
2019-04-01T17:14:39.970Z,18.97
2019-04-01T17:17:08.556Z,17.87
2019-04-01T17:19:37.174Z,18.13
2019-04-01T17:22:05.920Z,18.47
2019-04-01T17:24:34.651Z,18.97
2019-04-01T17:27:09.319Z,19.10
2019-04-01T17:29:38.384Z,18.33
2019-04-01T17:32:07.019Z,18.27
2019-04-01T17:34:35.634Z,18.57
2019-04-01T17:37:04.261Z,18.70
2019-04-01T17:39:34.088Z,19.43
2019-04-01T17:42:02.844Z,19.53
2019-04-01T17:44:31.444Z,21.57
2019-04-01T17:47:00.013Z,20.47
2019-04-01T17:49:28.732Z,19.43
2019-04-01T17:51:57.517Z,19.63
2019-04-01T17:54:26.122Z,18.77
2019-04-01T17:56:54.761Z,19.80
2019-04-01T17:59:23.497Z,19.57
2019-04-01T18:01:52.167Z,18.13
2019-04-01T18:04:21.240Z,19.47
2019-04-01T18:06:49.948Z,19.97
2019-04-01T18:09:18.517Z,18.70
2019-04-01T18:11:47.821Z,19.53
2019-04-01T18:14:16.483Z,19.73
2019-04-01T18:16:45.102Z,20.17
2019-04-01T18:19:13.741Z,20.20
2019-04-01T18:21:42.448Z,21.13
2019-04-01T18:24:11.075Z,19.30
2019-04-01T18:26:39.638Z,21.40
2019-04-01T18:29:09.122Z,24.10
2019-04-01T18:31:41.588Z,21.43
2019-04-01T18:34:10.129Z,24.67
2019-04-01T18:36:38.866Z,25.33
2019-04-01T18:39:08.686Z,24.33
2019-04-01T18:41:37.318Z,22.27
2019-04-01T18:44:06.079Z,24.20
2019-04-01T18:46:34.839Z,22.97
2019-04-01T18:49:03.697Z,23.37
2019-04-01T18:52:34.455Z,27.80
2019-04-01T18:54:28.927Z,23.23
2019-04-01T18:56:58.347Z,22.13
2019-04-01T18:59:27.406Z,22.83
2019-04-01T19:01:56.153Z,19.80
2019-04-01T19:04:24.724Z,22.33
2019-04-01T19:06:53.741Z,21.60
2019-04-01T19:09:22.600Z,21.60
2019-04-01T19:12:03.357Z,20.87
2019-04-01T19:14:21.522Z,21.87
2019-04-01T19:16:55.741Z,19.70
2019-04-01T19:19:24.411Z,21.30
2019-04-01T19:21:53.230Z,22.70
2019-04-01T19:24:22.044Z,22.80
2019-04-01T19:26:50.718Z,21.23
2019-04-01T19:29:21.833Z,20.03
2019-04-01T19:31:51.354Z,19.93
2019-04-01T19:34:20.106Z,19.50
2019-04-01T19:36:48.690Z,18.27
2019-04-01T19:39:17.250Z,19.33
2019-04-01T19:41:45.832Z,19.73
2019-04-01T19:44:14.672Z,19.43
2019-04-01T19:46:43.457Z,18.33
2019-04-01T19:49:12.116Z,18.13
2019-04-01T19:51:40.868Z,18.50
2019-04-01T19:54:09.401Z,18.13
2019-04-01T19:56:38.159Z,17.77
2019-04-01T19:59:06.700Z,17.10
2019-04-01T20:01:35.350Z,17.60
2019-04-01T20:04:03.951Z,18.73
2019-04-01T20:06:32.562Z,16.97
2019-04-01T20:09:01.201Z,18.97
2019-04-01T20:11:29.820Z,18.43
2019-04-01T20:14:01.232Z,18.30
2019-04-01T20:16:30.129Z,17.23
2019-04-01T20:18:58.814Z,17.27
2019-04-01T20:21:28.259Z,17.33
2019-04-01T20:23:57.335Z,17.57
2019-04-01T20:26:26.049Z,17.80
2019-04-01T20:28:54.799Z,17.57
2019-04-01T20:31:26.338Z,17.83
2019-04-01T20:33:55.220Z,17.07
2019-04-01T20:36:28.749Z,17.87
2019-04-01T20:38:54.179Z,17.73
2019-04-01T20:41:22.828Z,16.90
2019-04-01T20:43:51.406Z,18.67
2019-04-01T20:46:20.139Z,16.83
2019-04-01T20:48:48.701Z,16.77
2019-04-01T20:51:17.382Z,16.87
2019-04-01T20:53:47.174Z,17.23
2019-04-01T20:56:15.912Z,16.13
2019-04-01T20:58:46.020Z,17.40
2019-04-01T21:01:14.660Z,16.93
2019-04-01T21:03:43.286Z,15.20
2019-04-01T21:06:11.952Z,16.67
2019-04-01T21:08:40.582Z,16.27
2019-04-01T21:11:10.224Z,16.50
2019-04-01T21:13:39.804Z,17.60
2019-04-01T21:16:08.386Z,16.83
2019-04-01T21:18:36.974Z,16.27
2019-04-01T21:21:08.359Z,16.53
2019-04-01T21:23:36.923Z,17.80
2019-04-01T21:26:06.046Z,17.10
2019-04-01T21:28:34.680Z,17.20
2019-04-01T21:31:03.621Z,16.03
2019-04-01T21:33:32.171Z,17.23
2019-04-01T21:36:00.862Z,18.60
2019-04-01T21:38:29.708Z,17.17
2019-04-01T21:40:58.349Z,17.87
2019-04-01T21:43:27.052Z,16.97
2019-04-01T21:45:58.981Z,17.40
2019-04-01T21:48:27.565Z,18.30
2019-04-01T21:50:56.183Z,17.93
2019-04-01T21:53:24.828Z,17.43
2019-04-01T21:55:54.122Z,18.30
2019-04-01T21:58:23.143Z,18.23
2019-04-01T22:00:54.613Z,18.20
2019-04-01T22:03:23.268Z,17.60
2019-04-01T22:05:52.218Z,19.03
2019-04-01T22:08:21.972Z,20.67
2019-04-01T22:10:50.645Z,19.27
2019-04-01T22:13:19.234Z,20.10
2019-04-01T22:15:47.878Z,18.33
2019-04-01T22:18:16.886Z,18.50
2019-04-01T22:20:45.565Z,19.93
2019-04-01T22:23:14.285Z,22.37
2019-04-01T22:25:42.977Z,23.40
2019-04-01T22:28:11.621Z,21.20
2019-04-01T22:30:40.326Z,20.30
2019-04-01T22:33:08.919Z,19.63
2019-04-01T22:35:38.906Z,18.77
2019-04-01T22:38:08.104Z,16.50
2019-04-01T22:40:36.769Z,17.67
2019-04-01T22:43:05.495Z,17.73
2019-04-01T22:45:34.334Z,16.20
2019-04-01T22:48:02.891Z,15.97
2019-04-01T22:50:31.738Z,16.53
2019-04-01T22:53:00.476Z,17.50
2019-04-01T22:55:29.118Z,16.63
2019-04-01T22:57:58.044Z,16.90
2019-04-01T23:00:26.677Z,15.80
2019-04-01T23:05:50.693Z,16.27
2019-04-01T23:08:19.565Z,16.20
2019-04-01T23:11:09.023Z,17.13
2019-04-01T23:13:37.717Z,16.03
2019-04-01T23:16:06.457Z,15.70
2019-04-01T23:18:36.161Z,15.13
2019-04-01T23:21:08.109Z,16.33
2019-04-01T23:23:47.328Z,16.10
2019-04-01T23:26:15.978Z,15.50
2019-04-01T23:28:44.670Z,16.43
2019-04-01T23:32:45.527Z,15.33
2019-04-01T23:36:50.883Z,16.10
2019-04-01T23:40:57.492Z,14.43
2019-04-01T23:43:26.624Z,15.17
2019-04-01T23:45:55.412Z,14.27
2019-04-01T23:48:24.116Z,14.73
2019-04-01T23:50:52.631Z,14.67
2019-04-01T23:53:21.334Z,14.63
2019-04-01T23:55:50.095Z,15.40
2019-04-01T23:58:18.777Z,13.47
